Time;durP1;ratioP1;P1;durP2;ratioP2;P2;SDS_P1;SDS_P2;PMS_P1;PMS_P2;Temp;Humidity;BMP_temperature;BMP_pressure;BME280_temperature;BME280_humidity;BME280_pressure;Samples;Min_cycle;Max_cycle;Signal;HPM_P1;HPM_P2
2021/10/17 00:01:14;;;;;;;15.30;9.10;;;;;;;6.88;100.00;101295.63;5000429;28;20205;-74
2021/10/17 00:03:41;;;;;;;10.70;8.33;;;;;;;6.88;100.00;101293.03;5005413;28;20227;-74
2021/10/17 00:06:07;;;;;;;10.63;7.33;;;;;;;6.89;100.00;101289.56;5007783;28;20200;-74
2021/10/17 00:08:34;;;;;;;11.17;7.87;;;;;;;6.86;100.00;101281.81;4999861;28;20220;-74
2021/10/17 00:11:02;;;;;;;16.40;8.67;;;;;;;6.86;100.00;101293.88;4998661;28;20200;-75
2021/10/17 00:13:29;;;;;;;14.37;8.47;;;;;;;6.83;100.00;101287.84;5003592;28;20208;-74
2021/10/17 00:15:55;;;;;;;11.67;7.27;;;;;;;6.83;100.00;101285.25;5006756;28;20205;-74
2021/10/17 00:18:22;;;;;;;10.20;7.17;;;;;;;6.85;100.00;101277.47;5006004;28;20200;-74
2021/10/17 00:20:49;;;;;;;12.77;7.70;;;;;;;6.84;100.00;101273.16;5001197;28;20212;-74
2021/10/17 00:23:15;;;;;;;13.03;8.03;;;;;;;6.81;100.00;101279.22;5002363;28;20202;-74
2021/10/17 00:25:41;;;;;;;11.17;7.23;;;;;;;6.80;100.00;101282.66;5008006;28;20228;-74
2021/10/17 00:28:09;;;;;;;10.93;7.40;;;;;;;6.80;100.00;101279.22;4996609;28;20316;-74
2021/10/17 00:30:41;;;;;;;8.50;6.37;;;;;;;6.80;100.00;101274.88;5001307;28;20205;-74
2021/10/17 00:33:08;;;;;;;12.37;7.23;;;;;;;6.79;100.00;101278.34;5005538;28;20299;-74
2021/10/17 00:35:35;;;;;;;10.67;6.87;;;;;;;6.80;100.00;101276.63;5019131;28;20236;-74
2021/10/17 00:38:02;;;;;;;9.60;7.30;;;;;;;6.80;100.00;101276.63;5002141;28;20289;-74
2021/10/17 00:40:29;;;;;;;11.10;6.97;;;;;;;6.77;100.00;101271.44;5001403;28;20594;-74
2021/10/17 00:42:56;;;;;;;15.80;6.80;;;;;;;6.79;100.00;101282.69;5001492;28;20223;-74
2021/10/17 00:45:27;;;;;;;14.27;7.00;;;;;;;6.76;100.00;101274.91;5022606;28;20295;-74
2021/10/17 00:47:54;;;;;;;8.97;6.10;;;;;;;6.77;100.00;101269.72;5001677;28;20589;-74
2021/10/17 00:50:20;;;;;;;9.93;6.93;;;;;;;6.78;100.00;101274.03;5018076;28;20212;-74
2021/10/17 00:52:46;;;;;;;9.47;5.87;;;;;;;6.79;100.00;101261.94;5016566;28;20220;-74
2021/10/17 00:55:14;;;;;;;8.67;6.93;;;;;;;6.75;100.00;101260.19;5008571;28;20764;-74
2021/10/17 00:57:43;;;;;;;11.43;6.83;;;;;;;6.77;100.00;101258.47;5003006;28;20303;-74
2021/10/17 01:00:11;;;;;;;9.23;6.17;;;;;;;6.76;100.00;101262.78;4999349;28;20209;-74
2021/10/17 01:02:38;;;;;;;11.27;6.97;;;;;;;6.75;100.00;101255.88;5004737;28;20199;-74
2021/10/17 01:05:11;;;;;;;9.23;6.50;;;;;;;6.74;100.00;101267.13;4998400;28;20245;-75
2021/10/17 01:07:38;;;;;;;11.97;6.17;;;;;;;6.73;100.00;101269.72;5005460;28;20597;-74
2021/10/17 01:10:05;;;;;;;9.20;5.97;;;;;;;6.71;100.00;101272.28;4998008;28;20219;-74
2021/10/17 01:12:32;;;;;;;8.97;6.37;;;;;;;6.73;100.00;101267.13;5016624;28;20208;-74
2021/10/17 01:14:58;;;;;;;8.33;6.47;;;;;;;6.75;100.00;101273.16;5014974;28;20737;-74
2021/10/17 01:17:26;;;;;;;9.23;7.00;;;;;;;6.74;100.00;101274.03;5002190;28;20259;-74
2021/10/17 01:19:54;;;;;;;11.13;6.23;;;;;;;6.73;100.00;101269.72;4999448;28;20205;-74
2021/10/17 01:22:24;;;;;;;12.50;7.67;;;;;;;6.73;100.00;101267.13;5022516;28;20730;-74
2021/10/17 01:24:53;;;;;;;67.17;49.83;;;;;;;6.73;100.00;101259.34;5021286;28;20300;-74
2021/10/17 01:27:20;;;;;;;24.70;20.30;;;;;;;6.72;100.00;101255.91;5004086;28;20213;-74
2021/10/17 01:29:47;;;;;;;14.33;12.00;;;;;;;6.73;100.00;101247.25;5005055;28;20686;-74
2021/10/17 01:32:14;;;;;;;68.70;49.70;;;;;;;6.73;100.00;101241.19;4999155;28;20237;-74
2021/10/17 01:34:41;;;;;;;25.10;16.13;;;;;;;6.71;100.00;101250.72;5008134;28;20324;-74
2021/10/17 01:37:09;;;;;;;13.30;10.20;;;;;;;6.71;100.00;101242.94;5003251;28;20208;-74
2021/10/17 01:39:36;;;;;;;24.10;16.90;;;;;;;6.72;100.00;101239.47;4997540;28;20215;-74
2021/10/17 01:42:02;;;;;;;14.77;11.33;;;;;;;6.73;100.00;101247.25;5001113;28;20985;-74
2021/10/17 01:44:39;;;;;;;14.00;9.33;;;;;;;6.74;100.00;101242.94;5016157;28;20258;-74
2021/10/17 01:47:08;;;;;;;12.10;9.17;;;;;;;6.72;100.00;101253.31;4998596;28;20216;-74
2021/10/17 01:49:35;;;;;;;15.67;8.43;;;;;;;6.73;100.00;101247.25;5014372;28;20820;-74
2021/10/17 01:52:05;;;;;;;11.30;7.37;;;;;;;6.73;100.00;101247.25;4999563;28;20204;-74
2021/10/17 01:54:33;;;;;;;15.73;7.30;;;;;;;6.70;100.00;101254.16;5006131;28;20227;-74
2021/10/17 01:57:00;;;;;;;16.00;8.07;;;;;;;6.72;100.00;101242.06;5001041;28;20240;-74
2021/10/17 01:59:32;;;;;;;14.43;6.90;;;;;;;6.70;100.00;101252.44;4997834;28;20936;-74
2021/10/17 02:02:08;;;;;;;11.67;6.47;;;;;;;6.71;100.00;101246.38;5004122;28;20212;-74
2021/10/17 02:04:35;;;;;;;13.63;8.73;;;;;;;6.71;100.00;101238.59;5036741;22;20604;-73
2021/10/17 02:07:02;;;;;;;8.83;6.93;;;;;;;6.72;100.00;101242.94;5022688;28;20208;-73
2021/10/17 02:09:29;;;;;;;22.20;14.23;;;;;;;6.72;100.00;101242.94;5028025;28;20315;-73
2021/10/17 02:11:57;;;;;;;17.03;12.73;;;;;;;6.72;100.00;101242.94;5027132;28;20208;-73
2021/10/17 02:14:24;;;;;;;12.47;9.40;;;;;;;6.72;100.00;101240.34;5024775;28;20737;-73
2021/10/17 02:16:50;;;;;;;11.87;7.83;;;;;;;6.71;100.00;101238.59;5024254;28;20274;-73
2021/10/17 02:19:17;;;;;;;12.23;9.27;;;;;;;6.70;100.00;101238.59;5032031;28;20200;-72
2021/10/17 02:21:44;;;;;;;13.00;8.53;;;;;;;6.69;100.00;101232.56;5026228;28;20214;-73
2021/10/17 02:24:11;;;;;;;21.60;15.83;;;;;;;6.72;100.00;101234.28;5027648;28;20302;-73
2021/10/17 02:26:40;;;;;;;12.07;8.17;;;;;;;6.70;100.00;101236.91;5024622;28;20612;-73
2021/10/17 02:29:14;;;;;;;14.10;8.00;;;;;;;6.68;100.00;101230.81;5021877;28;20242;-72
2021/10/17 02:31:59;;;;;;;11.27;6.63;;;;;;;6.67;100.00;101234.28;5032792;28;20817;-73
2021/10/17 02:34:26;;;;;;;18.70;13.13;;;;;;;6.67;100.00;101231.72;5023626;28;20322;-73
2021/10/17 02:36:53;;;;;;;13.03;9.43;;;;;;;6.68;100.00;101227.38;5026801;28;20196;-73
2021/10/17 02:39:20;;;;;;;14.47;8.90;;;;;;;6.66;100.00;101229.13;5037255;28;20204;-73
2021/10/17 02:41:46;;;;;;;11.17;6.47;;;;;;;6.68;100.00;101227.38;5044246;28;20215;-74
2021/10/17 02:44:14;;;;;;;11.67;7.77;;;;;;;6.66;100.00;101231.72;5024754;28;20618;-73
2021/10/17 02:46:41;;;;;;;15.43;11.57;;;;;;;6.65;100.00;101230.84;5036918;28;20234;-73
2021/10/17 02:49:07;;;;;;;16.97;10.47;;;;;;;6.64;100.00;101229.97;5032846;28;20236;-73
2021/10/17 02:51:33;;;;;;;14.50;10.20;;;;;;;6.64;100.00;101219.59;5023929;28;20239;-73
2021/10/17 02:54:00;;;;;;;10.10;6.40;;;;;;;6.62;100.00;101228.25;5030235;28;20223;-73
2021/10/17 02:56:26;;;;;;;9.47;6.20;;;;;;;6.61;100.00;101221.31;5029886;28;20832;-73
2021/10/17 02:58:53;;;;;;;14.23;9.77;;;;;;;6.63;100.00;101220.47;5027835;28;20303;-73
2021/10/17 03:01:20;;;;;;;14.90;9.37;;;;;;;6.64;100.00;101219.59;5025925;28;20206;-73
2021/10/17 03:03:47;;;;;;;16.60;9.67;;;;;;;6.63;100.00;101222.19;5041514;28;20242;-73
2021/10/17 03:06:13;;;;;;;12.57;8.63;;;;;;;6.62;100.00;101218.75;5042690;28;20207;-73
2021/10/17 03:08:42;;;;;;;10.27;6.77;;;;;;;6.62;100.00;101221.34;5024465;28;20635;-72
2021/10/17 03:11:09;;;;;;;15.97;9.37;;;;;;;6.64;100.00;101222.19;5025873;28;20215;-73
2021/10/17 03:13:41;;;;;;;15.03;10.40;;;;;;;6.64;100.00;101222.19;5019678;28;20734;-73
2021/10/17 03:16:10;;;;;;;10.37;8.13;;;;;;;6.66;100.00;101218.75;5040118;28;20230;-73
2021/10/17 03:18:38;;;;;;;14.57;8.43;;;;;;;6.61;100.00;101216.16;5043707;28;20212;-73
2021/10/17 03:21:04;;;;;;;18.20;9.10;;;;;;;6.62;100.00;101217.88;5045460;28;20211;-73
2021/10/17 03:23:31;;;;;;;16.23;9.87;;;;;;;6.61;100.00;101217.03;5030633;28;20219;-73
2021/10/17 03:25:58;;;;;;;12.50;7.23;;;;;;;6.64;100.00;101221.34;5031273;28;20207;-73
2021/10/17 03:28:24;;;;;;;15.30;10.00;;;;;;;6.61;100.00;101216.16;5028011;28;20208;-73
2021/10/17 03:30:52;;;;;;;11.80;7.20;;;;;;;6.61;100.00;101221.31;5027146;28;20212;-73
2021/10/17 03:33:18;;;;;;;16.50;9.63;;;;;;;6.60;100.00;101214.44;5043171;28;20731;-73
2021/10/17 03:35:52;;;;;;;15.10;7.70;;;;;;;6.60;100.00;101211.84;5040382;28;20211;-72
2021/10/17 03:38:19;;;;;;;9.90;7.57;;;;;;;6.58;100.00;101211.00;5026462;28;20208;-72
2021/10/17 03:40:45;;;;;;;15.63;8.30;;;;;;;6.56;100.00;101215.28;5030226;28;20203;-73
2021/10/17 03:43:12;;;;;;;11.47;8.37;;;;;;;6.55;100.00;101213.56;5029237;28;20218;-72
2021/10/17 03:45:47;;;;;;;21.87;14.73;;;;;;;6.57;100.00;101209.25;5026743;28;20199;-73
2021/10/17 03:48:13;;;;;;;13.27;7.40;;;;;;;6.52;100.00;101214.41;5027694;28;20203;-73
2021/10/17 03:50:40;;;;;;;18.23;13.00;;;;;;;6.52;100.00;101206.66;5040692;28;20339;-73
2021/10/17 03:53:08;;;;;;;15.63;8.53;;;;;;;6.51;100.00;101207.53;5026897;28;20215;-73
2021/10/17 03:55:37;;;;;;;19.83;16.00;;;;;;;6.51;100.00;101210.13;5027548;28;20235;-72
2021/10/17 03:58:03;;;;;;;16.87;10.93;;;;;;;6.51;100.00;101211.81;5034815;28;20216;-73
2021/10/17 04:00:30;;;;;;;11.83;8.87;;;;;;;6.50;100.00;101208.38;5026776;28;20200;-73
2021/10/17 04:03:04;;;;;;;20.47;11.20;;;;;;;6.50;100.00;101208.38;5027503;28;20218;-73
2021/10/17 04:05:30;;;;;;;12.93;9.30;;;;;;;6.52;100.00;101211.81;5049861;28;20817;-73
2021/10/17 04:07:57;;;;;;;15.23;9.57;;;;;;;6.51;100.00;101207.53;5026967;28;20206;-73
2021/10/17 04:10:29;;;;;;;12.70;8.30;;;;;;;6.49;100.00;101209.25;5051590;28;21003;-74
2021/10/17 04:12:56;;;;;;;17.43;8.00;;;;;;;6.49;100.00;101214.44;5039435;28;20200;-72
2021/10/17 04:15:23;;;;;;;12.70;7.47;;;;;;;6.45;100.00;101215.28;5028274;28;20194;-73
2021/10/17 04:17:49;;;;;;;16.67;9.97;;;;;;;6.48;100.00;101217.88;5044019;28;20218;-73
2021/10/17 04:20:16;;;;;;;16.97;11.30;;;;;;;6.51;100.00;101211.81;5027106;28;20200;-74
2021/10/17 04:22:42;;;;;;;12.73;8.87;;;;;;;6.49;100.00;101216.16;5026431;28;20299;-73
2021/10/17 04:25:10;;;;;;;13.87;9.00;;;;;;;6.49;100.00;101213.56;5025585;28;20227;-73
2021/10/17 04:27:38;;;;;;;17.27;10.27;;;;;;;6.49;100.00;101214.44;5044028;28;20269;-74
2021/10/17 04:30:07;;;;;;;16.37;10.77;;;;;;;6.49;100.00;101219.63;5025562;28;20223;-73
2021/10/17 04:32:34;;;;;;;13.37;8.30;;;;;;;6.50;100.00;101204.94;5026746;28;20211;-73
2021/10/17 04:35:00;;;;;;;14.30;8.00;;;;;;;6.49;100.00;101217.03;5027268;28;20234;-73
2021/10/17 04:37:27;;;;;;;15.27;10.03;;;;;;;6.49;100.00;101213.56;5043602;28;20310;-74
2021/10/17 04:39:54;;;;;;;13.33;9.23;;;;;;;6.46;100.00;101206.66;5047044;28;20214;-73
2021/10/17 04:42:20;;;;;;;10.10;6.93;;;;;;;6.44;100.00;101210.97;5023029;28;20218;-73
2021/10/17 04:44:48;;;;;;;15.13;10.57;;;;;;;6.44;100.00;101200.63;5024713;28;20220;-73
2021/10/17 04:47:14;;;;;;;16.73;8.43;;;;;;;6.42;100.00;101205.81;5045702;28;20204;-73
2021/10/17 04:49:41;;;;;;;12.23;8.33;;;;;;;6.44;100.00;101203.22;5026107;28;20209;-73
2021/10/17 04:52:08;;;;;;;16.37;8.10;;;;;;;6.44;100.00;101201.47;5039717;28;20207;-73
2021/10/17 04:54:35;;;;;;;17.27;8.90;;;;;;;6.41;100.00;101198.88;5033205;28;20216;-73
2021/10/17 04:57:01;;;;;;;16.33;9.53;;;;;;;6.40;100.00;101197.16;5023762;28;20211;-73
2021/10/17 04:59:28;;;;;;;14.67;9.07;;;;;;;6.39;100.00;101195.44;5031226;28;20224;-72
2021/10/17 05:02:01;;;;;;;13.63;7.40;;;;;;;6.41;100.00;101204.06;5028039;28;20296;-74
2021/10/17 05:04:27;;;;;;;10.53;7.10;;;;;;;6.39;100.00;101204.94;5041787;28;20255;-73
2021/10/17 05:06:54;;;;;;;11.73;8.00;;;;;;;6.39;100.00;101210.13;5038875;28;20265;-74
2021/10/17 05:09:21;;;;;;;10.17;7.63;;;;;;;6.37;100.00;101207.53;5029895;28;20224;-73
2021/10/17 05:11:47;;;;;;;11.33;7.90;;;;;;;6.35;100.00;101209.25;5032886;28;20202;-73
2021/10/17 05:14:16;;;;;;;13.70;10.43;;;;;;;6.37;100.00;101214.44;5040818;28;20238;-73
2021/10/17 05:16:43;;;;;;;11.27;7.53;;;;;;;6.35;100.00;101214.44;5043258;28;20205;-74
2021/10/17 05:19:11;;;;;;;15.10;11.20;;;;;;;6.38;100.00;101211.81;5026330;28;20218;-73
2021/10/17 05:21:39;;;;;;;16.70;9.63;;;;;;;6.39;100.00;101212.72;5026792;28;20206;-73
2021/10/17 05:24:06;;;;;;;9.37;7.00;;;;;;;6.35;100.00;101222.19;5038539;28;20783;-73
2021/10/17 05:26:32;;;;;;;14.93;10.07;;;;;;;6.36;100.00;101213.56;5023689;28;20302;-73
2021/10/17 05:29:00;;;;;;;19.37;11.97;;;;;;;6.36;100.00;101215.28;5038723;28;20211;-72
2021/10/17 05:31:27;;;;;;;15.70;11.23;;;;;;;6.31;100.00;101217.84;5041226;28;20219;-73
2021/10/17 05:33:53;;;;;;;15.67;9.67;;;;;;;6.34;100.00;101212.69;5040936;28;20303;-73
2021/10/17 05:36:22;;;;;;;15.97;9.60;;;;;;;6.33;100.00;101216.16;5025453;28;20299;-73
2021/10/17 05:38:54;;;;;;;15.13;9.93;;;;;;;6.32;100.00;101219.59;5025857;28;20274;-73
2021/10/17 05:41:22;;;;;;;13.00;8.30;;;;;;;6.33;100.00;101220.47;5028547;28;20781;-73
2021/10/17 05:43:49;;;;;;;17.50;11.20;;;;;;;6.34;100.00;101215.28;5044858;28;20266;-74
2021/10/17 05:46:16;;;;;;;15.70;7.97;;;;;;;6.33;100.00;101223.94;5039970;28;20214;-73
2021/10/17 05:48:42;;;;;;;15.67;7.87;;;;;;;6.34;100.00;101217.88;5025584;28;20200;-73
2021/10/17 05:51:09;;;;;;;12.33;8.13;;;;;;;6.37;100.00;101223.06;5045884;28;20287;-74
2021/10/17 05:53:38;;;;;;;12.00;8.03;;;;;;;6.37;100.00;101224.81;5030954;28;20250;-73
2021/10/17 05:56:05;;;;;;;13.77;8.63;;;;;;;6.35;100.00;101224.78;5042053;28;20227;-73
2021/10/17 05:58:32;;;;;;;16.53;8.73;;;;;;;6.36;100.00;101234.28;5024970;28;20785;-73
2021/10/17 06:00:59;;;;;;;12.03;7.90;;;;;;;6.34;100.00;101223.06;5041407;28;20203;-72
2021/10/17 06:03:27;;;;;;;10.53;8.10;;;;;;;6.35;100.00;101232.56;5040488;28;20323;-73
2021/10/17 06:06:13;;;;;;;13.07;8.10;;;;;;;6.35;100.00;101227.38;5031902;28;20759;-72
2021/10/17 06:08:43;;;;;;;18.33;8.60;;;;;;;6.38;100.00;101229.94;5028139;28;20196;-73
2021/10/17 06:11:09;;;;;;;15.07;8.63;;;;;;;6.39;100.00;101228.25;5040971;28;20219;-73
2021/10/17 06:13:35;;;;;;;15.53;8.90;;;;;;;6.41;100.00;101226.50;5030050;28;20223;-73
2021/10/17 06:16:04;;;;;;;16.20;9.13;;;;;;;6.40;100.00;101230.84;5025468;28;20695;-74
2021/10/17 06:18:32;;;;;;;14.83;8.83;;;;;;;6.40;100.00;101230.84;5030831;28;20294;-73
2021/10/17 06:21:00;;;;;;;15.90;8.47;;;;;;;6.44;100.00;101229.97;5028616;28;20264;-72
2021/10/17 06:23:27;;;;;;;14.87;8.70;;;;;;;6.46;100.00;101229.97;5027865;28;20314;-73
2021/10/17 06:25:55;;;;;;;14.10;9.43;;;;;;;6.48;100.00;101227.38;5024045;28;20207;-73
2021/10/17 06:28:22;;;;;;;52.93;24.00;;;;;;;6.52;100.00;101229.97;5025870;28;20195;-73
2021/10/17 06:30:49;;;;;;;173.30;62.77;;;;;;;6.49;100.00;101227.41;5039528;28;20219;-74
2021/10/17 06:33:15;;;;;;;118.33;53.07;;;;;;;6.54;100.00;101233.41;5023725;28;20656;-73
2021/10/17 06:35:42;;;;;;;36.67;17.90;;;;;;;6.55;100.00;101237.75;5042635;28;20200;-73
2021/10/17 06:38:09;;;;;;;15.67;10.13;;;;;;;6.60;100.00;101240.34;5023859;28;20219;-73
2021/10/17 06:40:37;;;;;;;11.40;8.97;;;;;;;6.62;100.00;101238.63;5043241;28;20675;-73
2021/10/17 06:43:08;;;;;;;14.50;8.93;;;;;;;6.64;100.00;101236.88;5025201;28;20564;-72
2021/10/17 06:45:53;;;;;;;15.67;9.20;;;;;;;6.70;100.00;101246.38;5027304;28;20257;-73
2021/10/17 06:48:21;;;;;;;13.47;8.90;;;;;;;6.75;100.00;101240.31;5024708;28;20207;-74
2021/10/17 06:50:48;;;;;;;12.87;8.43;;;;;;;6.75;100.00;101248.09;5024191;28;20223;-73
2021/10/17 06:53:15;;;;;;;14.37;9.57;;;;;;;6.82;100.00;101252.44;5026783;28;20226;-73
2021/10/17 06:55:42;;;;;;;16.20;10.27;;;;;;;6.91;100.00;101253.28;5029741;28;20730;-73
2021/10/17 06:58:09;;;;;;;12.87;9.17;;;;;;;6.95;100.00;101244.66;5042195;28;20694;-73
2021/10/17 07:00:36;;;;;;;14.10;9.60;;;;;;;7.05;100.00;101233.38;5026509;28;20230;-73
2021/10/17 07:03:02;;;;;;;16.47;9.77;;;;;;;7.11;100.00;101235.13;5041006;28;20302;-74
2021/10/17 07:05:29;;;;;;;19.50;9.87;;;;;;;7.22;100.00;101243.72;5041447;28;20306;-74
2021/10/17 07:07:58;;;;;;;13.53;8.80;;;;;;;7.26;100.00;101248.03;5030980;28;20235;-74
2021/10/17 07:10:24;;;;;;;12.17;9.13;;;;;;;7.34;100.00;101251.47;5041547;28;20226;-73
2021/10/17 07:13:24;;;;;;;13.47;10.67;;;;;;;7.39;100.00;101254.91;5027376;28;20231;-73
2021/10/17 07:15:55;;;;;;;16.70;12.67;;;;;;;7.44;100.00;101257.50;5044338;28;20208;-74
2021/10/17 07:18:23;;;;;;;21.63;13.83;;;;;;;7.46;100.00;101271.34;5029122;28;21327;-74
2021/10/17 07:20:50;;;;;;;17.43;11.50;;;;;;;7.48;100.00;101264.41;5031360;28;20201;-74
2021/10/17 07:23:17;;;;;;;37.53;17.60;;;;;;;7.52;100.00;101273.03;5027305;28;20229;-73
2021/10/17 07:25:45;;;;;;;31.03;17.70;;;;;;;7.58;100.00;101266.09;5027274;28;20614;-73
2021/10/17 07:28:12;;;;;;;34.57;17.90;;;;;;;7.63;100.00;101271.25;5036360;28;20207;-74
2021/10/17 07:30:58;;;;;;;52.23;21.97;;;;;;;7.69;100.00;101268.66;5026692;28;20212;-73
2021/10/17 07:33:25;;;;;;;54.33;22.83;;;;;;;7.73;100.00;101267.75;5027993;28;20228;-73
2021/10/17 07:35:52;;;;;;;45.73;20.93;;;;;;;7.79;100.00;101264.28;5026885;28;20558;-73
2021/10/17 07:38:18;;;;;;;67.73;27.80;;;;;;;7.84;100.00;101272.91;5026950;28;20205;-74
2021/10/17 07:40:46;;;;;;;51.83;22.67;;;;;;;7.88;100.00;101269.44;5024148;28;20209;-74
2021/10/17 07:43:13;;;;;;;21.47;11.83;;;;;;;7.90;100.00;101272.03;5028900;28;20215;-74
2021/10/17 07:45:40;;;;;;;24.37;13.40;;;;;;;7.93;100.00;101277.19;5045427;28;20216;-73
2021/10/17 07:48:11;;;;;;;27.63;13.10;;;;;;;7.97;100.00;101273.75;5028744;28;20297;-73
2021/10/17 07:50:39;;;;;;;22.10;10.63;;;;;;;8.01;100.00;101282.38;5028769;28;20217;-72
2021/10/17 07:53:06;;;;;;;21.27;9.60;;;;;;;8.09;100.00;101280.56;5046922;28;20300;-73
2021/10/17 07:55:35;;;;;;;14.97;8.00;;;;;;;8.12;100.00;101284.03;5045321;28;20207;-74
2021/10/17 07:58:05;;;;;;;116.07;34.97;;;;;;;8.18;100.00;101282.25;5043392;28;20217;-74
2021/10/17 08:00:39;;;;;;;22.60;10.57;;;;;;;8.22;100.00;101276.19;5027682;28;20289;-73
2021/10/17 08:03:26;;;;;;;27.90;10.73;;;;;;;8.20;100.00;101275.34;5029290;28;20234;-74
2021/10/17 08:06:03;;;;;;;13.93;7.50;;;;;;;8.12;100.00;101273.63;5042698;28;20229;-73
2021/10/17 08:08:31;;;;;;;19.97;9.30;;;;;;;8.11;100.00;101274.53;5028614;28;20204;-74
2021/10/17 08:10:58;;;;;;;24.60;12.70;;;;;;;8.05;100.00;101269.34;5043292;28;20358;-74
2021/10/17 08:13:25;;;;;;;26.27;15.00;;;;;;;8.05;100.00;101276.28;5030732;28;20225;-73
2021/10/17 08:15:57;;;;;;;22.87;11.97;;;;;;;8.07;100.00;101274.53;5038086;28;20207;-74
2021/10/17 08:18:26;;;;;;;15.60;9.27;;;;;;;8.08;100.00;101273.69;5047168;28;20216;-73
2021/10/17 08:20:58;;;;;;;14.10;7.97;;;;;;;8.14;100.00;101277.09;5027234;28;20862;-73
2021/10/17 08:23:24;;;;;;;10.37;7.60;;;;;;;8.24;100.00;101277.03;5027901;28;20253;-73
2021/10/17 08:25:51;;;;;;;9.00;5.93;;;;;;;8.27;100.00;101277.88;5026852;28;20213;-74
2021/10/17 08:28:19;;;;;;;11.03;6.27;;;;;;;8.32;100.00;101276.13;5047118;28;20210;-74
2021/10/17 08:30:48;;;;;;;8.53;5.70;;;;;;;8.37;100.00;101285.63;5029075;28;20304;-73
2021/10/17 08:33:14;;;;;;;9.10;5.20;;;;;;;8.41;100.00;101282.13;5040899;28;20211;-73
2021/10/17 08:35:41;;;;;;;7.37;4.70;;;;;;;8.43;100.00;101283.03;5043699;28;20202;-74
2021/10/17 08:38:14;;;;;;;6.77;4.30;;;;;;;8.45;100.00;101284.72;5039366;28;20202;-74
2021/10/17 08:40:48;;;;;;;8.23;4.20;;;;;;;8.48;100.00;101284.72;5043076;28;20202;-73
2021/10/17 08:43:26;;;;;;;7.63;4.27;;;;;;;8.51;100.00;101279.50;5025975;28;20736;-73
2021/10/17 08:46:01;;;;;;;11.30;5.20;;;;;;;8.58;100.00;101288.09;5037562;28;20839;-74
2021/10/17 08:48:35;;;;;;;14.97;7.53;;;;;;;8.63;100.00;101275.94;5024859;28;20194;-73
2021/10/17 08:51:04;;;;;;;13.87;6.30;;;;;;;8.69;99.25;101283.69;5022978;28;20315;-74
2021/10/17 08:53:44;;;;;;;6.83;3.83;;;;;;;8.73;95.44;101288.88;5032078;28;20251;-73
2021/10/17 08:56:14;;;;;;;5.70;3.60;;;;;;;8.71;95.07;101287.13;5038071;28;20216;-73
2021/10/17 08:58:44;;;;;;;12.07;4.27;;;;;;;8.68;95.53;101283.69;5041065;28;20214;-74
2021/10/17 09:01:19;;;;;;;9.00;3.80;;;;;;;8.68;95.56;101288.91;5043027;28;20206;-73
2021/10/17 09:03:53;;;;;;;4.63;3.13;;;;;;;8.73;95.02;101279.34;5027680;28;20265;-73
2021/10/17 09:06:25;;;;;;;7.57;2.93;;;;;;;8.78;93.65;101279.31;5025534;28;20214;-73
2021/10/17 09:09:06;;;;;;;7.23;3.10;;;;;;;8.85;92.40;101279.22;5027222;28;20209;-73
2021/10/17 09:11:42;;;;;;;4.43;2.67;;;;;;;8.93;90.39;101276.56;5040438;28;20252;-74
2021/10/17 09:14:10;;;;;;;3.97;2.90;;;;;;;9.09;92.30;101274.66;5024015;28;20250;-72
2021/10/17 09:16:37;;;;;;;5.17;2.90;;;;;;;9.24;89.44;101273.66;5029137;28;20540;-74
2021/10/17 09:19:09;;;;;;;4.93;2.60;;;;;;;9.41;90.35;101282.16;5021300;28;20216;-72
2021/10/17 09:21:35;;;;;;;3.77;2.33;;;;;;;9.52;88.01;101281.19;5021425;28;20213;-73
2021/10/17 09:24:02;;;;;;;5.17;2.90;;;;;;;9.71;87.38;101285.31;5030577;28;20321;-74
2021/10/17 09:26:30;;;;;;;6.67;2.77;;;;;;;9.81;86.83;101284.28;5026276;28;20208;-73
2021/10/17 09:28:56;;;;;;;7.37;3.00;;;;;;;9.87;83.13;101296.38;5026041;28;20294;-73
2021/10/17 09:31:23;;;;;;;4.33;2.60;;;;;;;10.07;85.95;101293.50;5026405;28;20741;-73
2021/10/17 09:33:53;;;;;;;4.73;2.20;;;;;;;10.30;82.98;101302.75;5028661;28;20222;-73
2021/10/17 09:36:23;;;;;;;8.67;2.67;;;;;;;10.55;83.73;101305.91;5024837;28;20202;-73
2021/10/17 09:39:32;;;;;;;4.83;2.77;;;;;;;10.84;79.27;101312.44;5025108;28;20218;-73
2021/10/17 09:42:21;;;;;;;6.43;2.93;;;;;;;10.96;79.33;101314.84;5030576;28;20204;-73
2021/10/17 09:44:51;;;;;;;6.93;3.10;;;;;;;10.96;78.04;101307.84;5035803;28;20237;-72
2021/10/17 09:47:18;;;;;;;4.37;2.40;;;;;;;10.94;79.29;101308.75;5021226;28;20204;-73
2021/10/17 09:49:47;;;;;;;6.80;2.53;;;;;;;10.99;79.37;101317.38;5023849;28;20209;-73
2021/10/17 09:52:16;;;;;;;8.57;4.20;;;;;;;11.02;76.06;101317.31;5026435;28;20245;-74
2021/10/17 09:54:46;;;;;;;6.23;3.97;;;;;;;11.05;76.07;101313.81;5021531;28;20285;-74
2021/10/17 09:57:13;;;;;;;8.90;4.00;;;;;;;11.13;77.83;101314.53;5026773;28;20599;-73
2021/10/17 09:59:41;;;;;;;7.00;4.20;;;;;;;11.13;76.95;101315.41;5021531;28;20198;-74
2021/10/17 10:02:10;;;;;;;5.23;3.60;;;;;;;11.16;75.50;101317.09;5027788;28;20225;-74
2021/10/17 10:04:39;;;;;;;7.57;5.00;;;;;;;11.20;75.35;101310.06;5028368;28;20234;-73
2021/10/17 10:07:06;;;;;;;7.33;3.43;;;;;;;11.18;73.03;101320.53;5024095;28;20213;-74
2021/10/17 10:09:33;;;;;;;5.97;2.93;;;;;;;11.20;72.24;101316.13;5032248;28;20844;-73
2021/10/17 10:12:01;;;;;;;8.70;3.13;;;;;;;11.25;72.32;101310.84;5024903;28;20223;-74
2021/10/17 10:14:28;;;;;;;6.97;3.27;;;;;;;11.31;71.93;101309.00;5037395;28;20937;-74
2021/10/17 10:16:59;;;;;;;5.87;2.40;;;;;;;11.39;71.71;101308.84;5024574;28;20203;-74
2021/10/17 10:19:27;;;;;;;8.07;3.13;;;;;;;11.45;73.57;101303.50;5024632;28;20223;-73
2021/10/17 10:21:54;;;;;;;4.30;2.67;;;;;;;11.57;74.34;101307.63;5023521;28;20557;-73
2021/10/17 10:24:23;;;;;;;6.73;3.17;;;;;;;11.56;73.03;101303.31;5021238;28;20700;-73
2021/10/17 10:26:53;;;;;;;5.63;3.13;;;;;;;11.49;71.18;101302.56;5026867;28;20396;-74
2021/10/17 10:29:27;;;;;;;7.27;2.63;;;;;;;11.40;72.19;101302.75;5023187;28;20212;-74
2021/10/17 10:31:55;;;;;;;5.80;2.90;;;;;;;11.46;69.48;101306.97;5021627;28;20621;-73
2021/10/17 10:34:56;;;;;;;5.73;2.30;;;;;;;11.53;68.81;101300.75;5019941;28;20314;-72
2021/10/17 10:37:25;;;;;;;4.43;2.50;;;;;;;11.48;69.12;101307.81;5024371;28;20215;-73
2021/10/17 10:40:12;;;;;;;3.60;2.90;;;;;;;11.68;71.99;101294.34;5025768;28;20202;-73
2021/10/17 10:42:41;;;;;;;6.77;2.97;;;;;;;11.67;69.28;101303.09;5021723;28;20203;-74
2021/10/17 10:45:34;;;;;;;6.23;2.53;;;;;;;11.76;69.54;101297.66;5026226;28;20879;-73
2021/10/17 10:48:24;;;;;;;6.63;2.73;;;;;;;11.77;68.74;101299.41;5023183;28;20245;-73
2021/10/17 10:50:53;;;;;;;6.97;2.90;;;;;;;11.80;67.12;101304.53;5021616;28;20204;-73
2021/10/17 10:53:47;;;;;;;6.50;2.70;;;;;;;11.89;68.65;101304.38;5023668;28;20232;-74
2021/10/17 10:56:39;;;;;;;7.03;2.93;;;;;;;11.92;67.88;101303.47;5024101;28;20282;-74
2021/10/17 10:59:07;;;;;;;5.63;2.90;;;;;;;11.96;67.53;101296.44;5024867;28;21126;-74
2021/10/17 11:01:52;;;;;;;8.50;4.50;;;;;;;11.99;66.88;101291.16;5021252;28;20195;-73
2021/10/17 11:05:01;;;;;;;5.93;2.70;;;;;;;11.98;67.23;101290.28;5018887;28;20224;-74
2021/10/17 11:07:39;;;;;;;14.13;8.00;;;;;;;12.10;70.12;101286.53;5024246;28;20196;-73
2021/10/17 11:10:35;;;;;;;5.37;2.50;;;;;;;12.06;69.33;101282.28;5027756;28;20211;-74
2021/10/17 11:13:03;;;;;;;4.37;2.20;;;;;;;11.99;67.98;101291.16;5023651;28;20228;-73
2021/10/17 11:15:31;;;;;;;4.07;2.17;;;;;;;12.01;69.30;101282.38;5025037;28;20276;-74
2021/10/17 11:17:58;;;;;;;7.87;4.60;;;;;;;12.07;69.48;101281.41;5024193;28;20214;-73
2021/10/17 11:20:26;;;;;;;4.17;2.37;;;;;;;12.02;69.16;101278.88;5025857;28;20223;-74
2021/10/17 11:22:54;;;;;;;8.43;2.60;;;;;;;11.92;67.50;101283.44;5022197;28;20232;-74
2021/10/17 11:25:23;;;;;;;5.13;2.60;;;;;;;12.02;69.51;101272.78;5022105;28;20251;-73
2021/10/17 11:27:52;;;;;;;5.40;2.67;;;;;;;12.06;68.84;101271.81;5024898;28;20211;-74
2021/10/17 11:30:20;;;;;;;5.40;2.40;;;;;;;12.00;68.89;101266.75;5019190;28;20207;-73